sensor_id;sensor_type;location;lat;lon;timestamp;pressure;altitude;pressure_sealevel;temperature;humidity
3206;BME280;1615;53.602;11.418;2023-01-31T00:01:35;100978.72;;;5.40;100.00
3206;BME280;1615;53.602;11.418;2023-01-31T00:04:04;101002.50;;;5.50;100.00
3206;BME280;1615;53.602;11.418;2023-01-31T00:06:36;101001.44;;;5.51;100.00
3206;BME280;1615;53.602;11.418;2023-01-31T00:09:04;101009.00;;;5.49;100.00
3206;BME280;1615;53.602;11.418;2023-01-31T00:11:30;100894.66;;;4.86;100.00
3206;BME280;1615;53.602;11.418;2023-01-31T00:13:57;100912.16;;;4.95;100.00
3206;BME280;1615;53.602;11.418;2023-01-31T00:16:23;101013.94;;;5.52;100.00
3206;BME280;1615;53.602;11.418;2023-01-31T00:18:48;101008.19;;;5.48;100.00
3206;BME280;1615;53.602;11.418;2023-01-31T00:21:17;101012.00;;;5.47;100.00
3206;BME280;1615;53.602;11.418;2023-01-31T00:23:44;101025.31;;;5.49;100.00
3206;BME280;1615;53.602;11.418;2023-01-31T00:26:18;101010.59;;;5.45;100.00
3206;BME280;1615;53.602;11.418;2023-01-31T00:28:44;101044.09;;;5.50;100.00
3206;BME280;1615;53.602;11.418;2023-01-31T00:31:11;101024.19;;;5.45;100.00
3206;BME280;1615;53.602;11.418;2023-01-31T00:33:39;101107.41;;;5.46;100.00
3206;BME280;1615;53.602;11.418;2023-01-31T00:36:06;100932.56;;;4.76;100.00
3206;BME280;1615;53.602;11.418;2023-01-31T00:38:33;101035.88;;;5.45;100.00
3206;BME280;1615;53.602;11.418;2023-01-31T00:40:58;101038.03;;;5.43;100.00
3206;BME280;1615;53.602;11.418;2023-01-31T00:43:24;101054.09;;;5.45;100.00
3206;BME280;1615;53.602;11.418;2023-01-31T00:45:49;101059.78;;;5.43;100.00
3206;BME280;1615;53.602;11.418;2023-01-31T00:48:14;100973.81;;;4.94;100.00
3206;BME280;1615;53.602;11.418;2023-01-31T00:50:40;101019.50;;;5.19;100.00
3206;BME280;1615;53.602;11.418;2023-01-31T00:53:05;100975.13;;;4.92;100.00
3206;BME280;1615;53.602;11.418;2023-01-31T00:55:31;101068.19;;;5.42;100.00
3206;BME280;1615;53.602;11.418;2023-01-31T00:57:56;101065.47;;;5.42;100.00
3206;BME280;1615;53.602;11.418;2023-01-31T01:00:21;101078.25;;;5.41;100.00
3206;BME280;1615;53.602;11.418;2023-01-31T01:02:47;101076.94;;;5.44;100.00
3206;BME280;1615;53.602;11.418;2023-01-31T01:05:12;101083.19;;;5.44;100.00
3206;BME280;1615;53.602;11.418;2023-01-31T01:07:38;101091.09;;;5.46;100.00
3206;BME280;1615;53.602;11.418;2023-01-31T01:10:04;101101.97;;;5.46;100.00
3206;BME280;1615;53.602;11.418;2023-01-31T01:12:29;101103.59;;;5.47;100.00
3206;BME280;1615;53.602;11.418;2023-01-31T01:14:55;101109.03;;;5.47;100.00
3206;BME280;1615;53.602;11.418;2023-01-31T01:17:20;101104.69;;;5.46;100.00
3206;BME280;1615;53.602;11.418;2023-01-31T01:19:45;101041.03;;;5.04;100.00
3206;BME280;1615;53.602;11.418;2023-01-31T01:22:11;101121.56;;;5.48;100.00
3206;BME280;1615;53.602;11.418;2023-01-31T01:24:41;101146.63;;;5.50;100.00
3206;BME280;1615;53.602;11.418;2023-01-31T01:27:07;101114.31;;;5.37;100.00
3206;BME280;1615;53.602;11.418;2023-01-31T01:29:32;101133.44;;;5.42;100.00
3206;BME280;1615;53.602;11.418;2023-01-31T01:31:57;101152.22;;;5.43;100.00
3206;BME280;1615;53.602;11.418;2023-01-31T01:34:23;101156.25;;;5.41;100.00
3206;BME280;1615;53.602;11.418;2023-01-31T01:36:48;101110.75;;;5.15;100.00
3206;BME280;1615;53.602;11.418;2023-01-31T01:39:13;101151.31;;;5.38;100.00
3206;BME280;1615;53.602;11.418;2023-01-31T01:41:39;101164.09;;;5.37;100.00
3206;BME280;1615;53.602;11.418;2023-01-31T01:49:54;101155.69;;;5.39;100.00
3206;BME280;1615;53.602;11.418;2023-01-31T01:52:22;101153.06;;;5.44;100.00
3206;BME280;1615;53.602;11.418;2023-01-31T01:54:56;101153.06;;;5.44;100.00
3206;BME280;1615;53.602;11.418;2023-01-31T01:57:29;101160.13;;;5.45;100.00
3206;BME280;1615;53.602;11.418;2023-01-31T02:00:07;101141.19;;;5.33;100.00
3206;BME280;1615;53.602;11.418;2023-01-31T02:02:34;101173.97;;;5.43;100.00
3206;BME280;1615;53.602;11.418;2023-01-31T02:05:00;101176.13;;;5.41;100.00
3206;BME280;1615;53.602;11.418;2023-01-31T02:07:26;101167.69;;;5.43;100.00
3206;BME280;1615;53.602;11.418;2023-01-31T02:10:09;101130.34;;;5.17;100.00
3206;BME280;1615;53.602;11.418;2023-01-31T02:12:37;101175.28;;;5.41;100.00
3206;BME280;1615;53.602;11.418;2023-01-31T02:15:04;101167.38;;;5.39;100.00
3206;BME280;1615;53.602;11.418;2023-01-31T02:17:29;101156.19;;;5.19;100.00
3206;BME280;1615;53.602;11.418;2023-01-31T02:20:26;101162.09;;;5.33;100.00
3206;BME280;1615;53.602;11.418;2023-01-31T02:33:50;101172.81;;;5.39;100.00
3206;BME280;1615;53.602;11.418;2023-01-31T02:36:29;101172.56;;;5.41;100.00
3206;BME280;1615;53.602;11.418;2023-01-31T02:39:28;101043.41;;;4.62;100.00
3206;BME280;1615;53.602;11.418;2023-01-31T02:44:49;101168.22;;;5.40;100.00
3206;BME280;1615;53.602;11.418;2023-01-31T02:48:06;101166.06;;;5.42;100.00
3206;BME280;1615;53.602;11.418;2023-01-31T02:53:34;101169.78;;;5.36;100.00
3206;BME280;1615;53.602;11.418;2023-01-31T02:56:16;101163.84;;;5.39;100.00
3206;BME280;1615;53.602;11.418;2023-01-31T03:01:17;101167.38;;;5.39;100.00
3206;BME280;1615;53.602;11.418;2023-01-31T03:03:45;101174.22;;;5.42;100.00
3206;BME280;1615;53.602;11.418;2023-01-31T03:08:38;101156.66;;;5.33;100.00
3206;BME280;1615;53.602;11.418;2023-01-31T03:11:07;101185.16;;;5.47;100.00
3206;BME280;1615;53.602;11.418;2023-01-31T03:13:44;101183.00;;;5.49;100.00
3206;BME280;1615;53.602;11.418;2023-01-31T03:16:27;101191.69;;;5.46;100.00
3206;BME280;1615;53.602;11.418;2023-01-31T03:19:27;101195.19;;;5.46;100.00
3206;BME280;1615;53.602;11.418;2023-01-31T03:22:18;101095.97;;;4.89;100.00
3206;BME280;1615;53.602;11.418;2023-01-31T03:24:49;101192.75;;;5.45;100.00
3206;BME280;1615;53.602;11.418;2023-01-31T03:27:15;101194.41;;;5.46;100.00
3206;BME280;1615;53.602;11.418;2023-01-31T03:29:41;101190.91;;;5.50;100.00
3206;BME280;1615;53.602;11.418;2023-01-31T03:34:38;101182.97;;;5.44;100.00
3206;BME280;1615;53.602;11.418;2023-01-31T03:37:11;101208.78;;;5.63;100.00
3206;BME280;1615;53.602;11.418;2023-01-31T03:42:21;101206.53;;;5.76;100.00
3206;BME280;1615;53.602;11.418;2023-01-31T03:44:53;101102.75;;;5.25;100.00
3206;BME280;1615;53.602;11.418;2023-01-31T03:47:27;101204.28;;;5.90;100.00
3206;BME280;1615;53.602;11.418;2023-01-31T03:49:57;101212.47;;;5.90;100.00
3206;BME280;1615;53.602;11.418;2023-01-31T03:52:29;101210.88;;;5.94;100.00
3206;BME280;1615;53.602;11.418;2023-01-31T03:55:00;101205.50;;;5.99;100.00
3206;BME280;1615;53.602;11.418;2023-01-31T03:57:33;101204.19;;;6.01;100.00
3206;BME280;1615;53.602;11.418;2023-01-31T04:00:03;101213.22;;;6.07;100.00
3206;BME280;1615;53.602;11.418;2023-01-31T04:02:34;101200.31;;;5.97;100.00
3206;BME280;1615;53.602;11.418;2023-01-31T04:05:09;101211.09;;;6.09;100.00
3206;BME280;1615;53.602;11.418;2023-01-31T04:07:36;101207.59;;;6.13;100.00
3206;BME280;1615;53.602;11.418;2023-01-31T04:10:07;101207.59;;;6.13;100.00
3206;BME280;1615;53.602;11.418;2023-01-31T04:12:36;101212.22;;;6.13;100.00
3206;BME280;1615;53.602;11.418;2023-01-31T04:15:04;101220.97;;;6.15;100.00
3206;BME280;1615;53.602;11.418;2023-01-31T04:17:30;101211.97;;;6.14;100.00
3206;BME280;1615;53.602;11.418;2023-01-31T04:19:55;101213.59;;;6.15;100.00
3206;BME280;1615;53.602;11.418;2023-01-31T04:22:20;101204.94;;;6.18;100.00
3206;BME280;1615;53.602;11.418;2023-01-31T04:24:46;101204.69;;;6.20;100.00
3206;BME280;1615;53.602;11.418;2023-01-31T04:27:11;101204.09;;;6.18;100.00
3206;BME280;1615;53.602;11.418;2023-01-31T04:29:36;101213.66;;;6.20;100.00
3206;BME280;1615;53.602;11.418;2023-01-31T04:32:02;101213.16;;;6.23;100.00
3206;BME280;1615;53.602;11.418;2023-01-31T04:34:27;101209.19;;;6.31;100.00
3206;BME280;1615;53.602;11.418;2023-01-31T04:36:52;101125.28;;;5.80;100.00
3206;BME280;1615;53.602;11.418;2023-01-31T04:39:18;101204.75;;;6.25;100.00
3206;BME280;1615;53.602;11.418;2023-01-31T04:41:43;101202.59;;;6.27;100.00
3206;BME280;1615;53.602;11.418;2023-01-31T04:44:08;101203.13;;;6.24;100.00
3206;BME280;1615;53.602;11.418;2023-01-31T04:46:34;101195.50;;;6.26;100.00
3206;BME280;1615;53.602;11.418;2023-01-31T04:48:59;101194.97;;;6.29;100.00
3206;BME280;1615;53.602;11.418;2023-01-31T04:51:24;101200.63;;;6.22;100.00
3206;BME280;1615;53.602;11.418;2023-01-31T04:53:50;101203.13;;;6.24;100.00
3206;BME280;1615;53.602;11.418;2023-01-31T04:56:15;101205.84;;;6.24;100.00
3206;BME280;1615;53.602;11.418;2023-01-31T04:58:40;101194.38;;;6.22;100.00
3206;BME280;1615;53.602;11.418;2023-01-31T05:01:06;101194.88;;;6.19;100.00
3206;BME280;1615;53.602;11.418;2023-01-31T05:03:32;101192.72;;;6.21;100.00
3206;BME280;1615;53.602;11.418;2023-01-31T05:05:57;101199.03;;;6.26;100.00
3206;BME280;1615;53.602;11.418;2023-01-31T05:08:22;101191.50;;;6.33;100.00
3206;BME280;1615;53.602;11.418;2023-01-31T05:10:48;101174.94;;;6.35;100.00
3206;BME280;1615;53.602;11.418;2023-01-31T05:13:13;101184.44;;;6.32;100.00
3206;BME280;1615;53.602;11.418;2023-01-31T05:15:39;101180.63;;;6.33;100.00
3206;BME280;1615;53.602;11.418;2023-01-31T05:18:05;101196.66;;;6.30;100.00
3206;BME280;1615;53.602;11.418;2023-01-31T05:20:35;101194.97;;;6.29;100.00
3206;BME280;1615;53.602;11.418;2023-01-31T05:23:04;101189.88;;;6.32;100.00
3206;BME280;1615;53.602;11.418;2023-01-31T05:25:29;101123.28;;;5.97;100.00
3206;BME280;1615;53.602;11.418;2023-01-31T05:27:55;101177.47;;;6.20;100.00
3206;BME280;1615;53.602;11.418;2023-01-31T05:30:21;101183.34;;;6.12;100.00
3206;BME280;1615;53.602;11.418;2023-01-31T05:32:48;101195.56;;;6.09;100.00
3206;BME280;1615;53.602;11.418;2023-01-31T05:35:14;101198.44;;;5.98;100.00
3206;BME280;1615;53.602;11.418;2023-01-31T05:37:40;101211.44;;;5.96;100.00
3206;BME280;1615;53.602;11.418;2023-01-31T05:40:12;101198.84;;;5.90;100.00
3206;BME280;1615;53.602;11.418;2023-01-31T05:42:37;101136.22;;;5.47;100.00
3206;BME280;1615;53.602;11.418;2023-01-31T05:45:03;101194.50;;;5.89;100.00
3206;BME280;1615;53.602;11.418;2023-01-31T05:47:29;101192.84;;;5.88;100.00
3206;BME280;1615;53.602;11.418;2023-01-31T05:49:54;101193.09;;;5.86;100.00
3206;BME280;1615;53.602;11.418;2023-01-31T05:52:20;101190.94;;;5.88;100.00
3206;BME280;1615;53.602;11.418;2023-01-31T05:54:45;101192.41;;;5.96;100.00
3206;BME280;1615;53.602;11.418;2023-01-31T05:57:10;101137.53;;;5.61;100.00
3206;BME280;1615;53.602;11.418;2023-01-31T05:59:36;101197.91;;;6.01;100.00
3206;BME280;1615;53.602;11.418;2023-01-31T06:02:01;101200.56;;;5.96;100.00
3206;BME280;1615;53.602;11.418;2023-01-31T06:04:26;101207.47;;;6.03;100.00
3206;BME280;1615;53.602;11.418;2023-01-31T06:06:52;101209.44;;;6.08;100.00
3206;BME280;1615;53.602;11.418;2023-01-31T06:09:17;101199.13;;;6.10;100.00
3206;BME280;1615;53.602;11.418;2023-01-31T06:11:43;101195.88;;;6.13;100.00
3206;BME280;1615;53.602;11.418;2023-01-31T06:14:08;101183.34;;;6.12;100.00
3206;BME280;1615;53.602;11.418;2023-01-31T06:16:34;101181.22;;;6.14;100.00
3206;BME280;1615;53.602;11.418;2023-01-31T06:18:59;101184.44;;;6.11;100.00
3206;BME280;1615;53.602;11.418;2023-01-31T06:21:26;101188.78;;;6.12;100.00
3206;BME280;1615;53.602;11.418;2023-01-31T06:23:52;101191.97;;;6.04;100.00
3206;BME280;1615;53.602;11.418;2023-01-31T06:26:17;101288.94;;;6.10;100.00
3206;BME280;1615;53.602;11.418;2023-01-31T06:28:42;101192.41;;;6.17;100.00
3206;BME280;1615;53.602;11.418;2023-01-31T06:31:08;101196.47;;;6.15;100.00
3206;BME280;1615;53.602;11.418;2023-01-31T06:33:34;101191.56;;;6.17;100.00
3206;BME280;1615;53.602;11.418;2023-01-31T06:36:00;101181.53;;;6.17;100.00
3206;BME280;1615;53.602;11.418;2023-01-31T06:38:26;101174.75;;;6.20;100.00
3206;BME280;1615;53.602;11.418;2023-01-31T06:40:52;101104.00;;;5.77;100.00
3206;BME280;1615;53.602;11.418;2023-01-31T06:43:17;101174.75;;;6.20;100.00
3206;BME280;1615;53.602;11.418;2023-01-31T06:45:43;101165.00;;;6.24;100.00
3206;BME280;1615;53.602;11.418;2023-01-31T06:48:09;101178.56;;;6.19;100.00
3206;BME280;1615;53.602;11.418;2023-01-31T06:50:35;101159.56;;;6.24;100.00
3206;BME280;1615;53.602;11.418;2023-01-31T06:53:00;101099.47;;;5.82;100.00
3206;BME280;1615;53.602;11.418;2023-01-31T06:55:26;101154.63;;;6.21;100.00
3206;BME280;1615;53.602;11.418;2023-01-31T06:57:52;101136.53;;;6.10;100.00
3206;BME280;1615;53.602;11.418;2023-01-31T07:00:17;101119.41;;;5.88;100.00
3206;BME280;1615;53.602;11.418;2023-01-31T07:02:44;101147.66;;;6.30;100.00
3206;BME280;1615;53.602;11.418;2023-01-31T07:05:09;101151.75;;;6.32;100.00
3206;BME280;1615;53.602;11.418;2023-01-31T07:07:35;100989.47;;;5.52;100.00
3206;BME280;1615;53.602;11.418;2023-01-31T07:10:00;101144.56;;;6.48;100.00
3206;BME280;1615;53.602;11.418;2023-01-31T07:12:26;101134.16;;;6.40;100.00
3206;BME280;1615;53.602;11.418;2023-01-31T07:14:51;101144.25;;;6.44;100.00
3206;BME280;1615;53.602;11.418;2023-01-31T07:17:17;101138.06;;;6.54;100.00
3206;BME280;1615;53.602;11.418;2023-01-31T07:19:42;101137.03;;;6.60;100.00
3206;BME280;1615;53.602;11.418;2023-01-31T07:22:07;101120.69;;;6.60;100.00
3206;BME280;1615;53.602;11.418;2023-01-31T07:24:33;101134.91;;;6.62;100.00
3206;BME280;1615;53.602;11.418;2023-01-31T07:26:58;101092.16;;;6.36;100.00
3206;BME280;1615;53.602;11.418;2023-01-31T07:29:25;101134.38;;;6.65;100.00
3206;BME280;1615;53.602;11.418;2023-01-31T07:31:51;101127.88;;;6.71;100.00
3206;BME280;1615;53.602;11.418;2023-01-31T07:34:16;101141.81;;;6.74;100.00
3206;BME280;1615;53.602;11.418;2023-01-31T07:36:43;101129.91;;;6.80;100.00
3206;BME280;1615;53.602;11.418;2023-01-31T07:39:08;101130.75;;;6.86;100.00
3206;BME280;1615;53.602;11.418;2023-01-31T07:41:33;101078.75;;;6.61;100.00
3206;BME280;1615;53.602;11.418;2023-01-31T07:43:59;101041.06;;;6.48;100.00
3206;BME280;1615;53.602;11.418;2023-01-31T07:46:24;101116.72;;;7.04;100.00
3206;BME280;1615;53.602;11.418;2023-01-31T07:48:49;101102.47;;;6.97;100.00
3206;BME280;1615;53.602;11.418;2023-01-31T07:51:14;101103.66;;;7.06;100.00
3206;BME280;1615;53.602;11.418;2023-01-31T07:53:40;101105.84;;;7.04;100.00
3206;BME280;1615;53.602;11.418;2023-01-31T07:58:35;101089.47;;;7.04;100.00
3206;BME280;1615;53.602;11.418;2023-01-31T08:01:00;101086.78;;;7.14;100.00
3206;BME280;1615;53.602;11.418;2023-01-31T08:03:44;101074.81;;;7.15;100.00
3206;BME280;1615;53.602;11.418;2023-01-31T08:06:11;101068.03;;;7.17;100.00
3206;BME280;1615;53.602;11.418;2023-01-31T08:08:39;101066.69;;;7.20;100.00
3206;BME280;1615;53.602;11.418;2023-01-31T08:11:05;101076.53;;;7.26;100.00
3206;BME280;1615;53.602;11.418;2023-01-31T08:13:31;101062.91;;;7.26;100.00
3206;BME280;1615;53.602;11.418;2023-01-31T08:15:56;101067.00;;;7.28;100.00
3206;BME280;1615;53.602;11.418;2023-01-31T08:18:22;101062.31;;;7.24;100.00
3206;BME280;1615;53.602;11.418;2023-01-31T08:20:47;101034.44;;;7.12;100.00
3206;BME280;1615;53.602;11.418;2023-01-31T08:23:13;101047.88;;;7.23;100.00
3206;BME280;1615;53.602;11.418;2023-01-31T08:25:38;101050.91;;;7.27;100.00
3206;BME280;1615;53.602;11.418;2023-01-31T08:28:03;101049.81;;;7.28;100.00
3206;BME280;1615;53.602;11.418;2023-01-31T08:30:29;101045.72;;;7.30;100.00
3206;BME280;1615;53.602;11.418;2023-01-31T08:32:55;101034.56;;;7.32;100.00
3206;BME280;1615;53.602;11.418;2023-01-31T08:35:20;100979.78;;;6.87;100.00
3206;BME280;1615;53.602;11.418;2023-01-31T08:37:46;100957.22;;;6.91;100.00
3206;BME280;1615;53.602;11.418;2023-01-31T08:40:11;101030.53;;;7.44;100.00
3206;BME280;1615;53.602;11.418;2023-01-31T08:42:37;101016.63;;;7.46;100.00
3206;BME280;1615;53.602;11.418;2023-01-31T08:45:03;100997.81;;;7.44;100.00
3206;BME280;1615;53.602;11.418;2023-01-31T08:47:29;100991.53;;;7.44;100.00
3206;BME280;1615;53.602;11.418;2023-01-31T08:49:54;100996.69;;;7.40;100.00
3206;BME280;1615;53.602;11.418;2023-01-31T08:52:19;100991.53;;;7.44;100.00
3206;BME280;1615;53.602;11.418;2023-01-31T08:54:44;100986.56;;;7.31;100.00
3206;BME280;1615;53.602;11.418;2023-01-31T08:57:10;100978.69;;;7.39;100.00
3206;BME280;1615;53.602;11.418;2023-01-31T08:59:35;100982.50;;;7.38;100.00
3206;BME280;1615;53.602;11.418;2023-01-31T09:02:01;100834.69;;;6.55;100.00
3206;BME280;1615;53.602;11.418;2023-01-31T09:04:27;100942.34;;;7.19;100.00
3206;BME280;1615;53.602;11.418;2023-01-31T09:06:52;100976.78;;;7.45;100.00
3206;BME280;1615;53.602;11.418;2023-01-31T09:09:19;100988.81;;;7.49;100.00
3206;BME280;1615;53.602;11.418;2023-01-31T09:11:44;100980.34;;;7.40;100.00
3206;BME280;1615;53.602;11.418;2023-01-31T09:14:09;100929.22;;;7.06;100.00
3206;BME280;1615;53.602;11.418;2023-01-31T09:16:35;100967.50;;;7.46;100.00
3206;BME280;1615;53.602;11.418;2023-01-31T09:19:00;100962.06;;;7.46;100.00
3206;BME280;1615;53.602;11.418;2023-01-31T09:21:25;100952.53;;;7.48;100.00
3206;BME280;1615;53.602;11.418;2023-01-31T09:23:58;100949.28;;;7.51;100.00
3206;BME280;1615;53.602;11.418;2023-01-31T09:26:23;100845.75;;;6.90;100.00
3206;BME280;1615;53.602;11.418;2023-01-31T09:28:49;100931.25;;;7.45;100.00
3206;BME280;1615;53.602;11.418;2023-01-31T09:31:18;100904.50;;;7.37;100.00
3206;BME280;1615;53.602;11.418;2023-01-31T09:33:45;100913.56;;;7.53;100.00
3206;BME280;1615;53.602;11.418;2023-01-31T09:36:15;100908.63;;;7.55;100.00
3206;BME280;1615;53.602;11.418;2023-01-31T09:38:41;100906.47;;;7.52;100.00
3206;BME280;1615;53.602;11.418;2023-01-31T09:41:27;100908.38;;;7.56;100.00
3206;BME280;1615;53.602;11.418;2023-01-31T09:43:58;100902.38;;;7.64;100.00
3206;BME280;1615;53.602;11.418;2023-01-31T09:46:28;100904.31;;;7.69;100.00
3206;BME280;1615;53.602;11.418;2023-01-31T09:48:58;100890.38;;;7.75;100.00
3206;BME280;1615;53.602;11.418;2023-01-31T09:51:26;100897.19;;;7.73;100.00
3206;BME280;1615;53.602;11.418;2023-01-31T09:53:53;100883.84;;;7.71;100.00
3206;BME280;1615;53.602;11.418;2023-01-31T09:56:27;100877.03;;;7.79;100.00
3206;BME280;1615;53.602;11.418;2023-01-31T09:59:03;100882.50;;;7.84;100.00
3206;BME280;1615;53.602;11.418;2023-01-31T10:01:48;100854.63;;;7.82;100.00
3206;BME280;1615;53.602;11.418;2023-01-31T10:07:03;100782.63;;;7.43;100.00
3206;BME280;1615;53.602;11.418;2023-01-31T10:09:41;100857.91;;;7.89;100.00
3206;BME280;1615;53.602;11.418;2023-01-31T10:12:21;100837.47;;;7.81;100.00
3206;BME280;1615;53.602;11.418;2023-01-31T10:14:52;100845.66;;;7.81;100.00
3206;BME280;1615;53.602;11.418;2023-01-31T10:17:26;100848.66;;;7.80;100.00
3206;BME280;1615;53.602;11.418;2023-01-31T10:20:07;100848.66;;;7.80;100.00
3206;BME280;1615;53.602;11.418;2023-01-31T10:22:46;100839.09;;;7.72;100.00
3206;BME280;1615;53.602;11.418;2023-01-31T10:25:37;100831.16;;;7.76;100.00
3206;BME280;1615;53.602;11.418;2023-01-31T10:28:34;100836.91;;;7.79;100.00
3206;BME280;1615;53.602;11.418;2023-01-31T10:31:06;100821.34;;;7.75;100.00
3206;BME280;1615;53.602;11.418;2023-01-31T10:37:01;100820.53;;;7.69;100.00
3206;BME280;1615;53.602;11.418;2023-01-31T10:39:52;100811.53;;;7.64;100.00
3206;BME280;1615;53.602;11.418;2023-01-31T10:50:19;100797.34;;;7.52;100.00
3206;BME280;1615;53.602;11.418;2023-01-31T10:58:16;100766.00;;;7.49;100.00
3206;BME280;1615;53.602;11.418;2023-01-31T11:00:43;100765.69;;;7.46;100.00
3206;BME280;1615;53.602;11.418;2023-01-31T11:03:12;100742.25;;;7.45;100.00
3206;BME280;1615;53.602;11.418;2023-01-31T11:05:53;100751.53;;;7.44;100.00
3206;BME280;1615;53.602;11.418;2023-01-31T11:08:49;100738.16;;;7.52;100.00
3206;BME280;1615;53.602;11.418;2023-01-31T11:11:21;100737.06;;;7.58;100.00
3206;BME280;1615;53.602;11.418;2023-01-31T11:13:58;100728.06;;;7.53;100.00
3206;BME280;1615;53.602;11.418;2023-01-31T11:16:27;100735.69;;;7.51;100.00
3206;BME280;1615;53.602;11.418;2023-01-31T11:18:56;100718.75;;;7.84;100.00
3206;BME280;1615;53.602;11.418;2023-01-31T11:21:32;100708.66;;;7.74;100.00
3206;BME280;1615;53.602;11.418;2023-01-31T11:24:14;100679.50;;;7.55;100.00
3206;BME280;1615;53.602;11.418;2023-01-31T11:26:47;100644.38;;;7.28;100.00
3206;BME280;1615;53.602;11.418;2023-01-31T11:29:26;100673.53;;;7.53;100.00
3206;BME280;1615;53.602;11.418;2023-01-31T11:31:52;100698.03;;;7.68;100.00
3206;BME280;1615;53.602;11.418;2023-01-31T11:34:26;100690.91;;;7.72;100.00
3206;BME280;1615;53.602;11.418;2023-01-31T11:37:02;100670.47;;;7.59;100.00
3206;BME280;1615;53.602;11.418;2023-01-31T11:39:33;100680.56;;;7.74;100.00
3206;BME280;1615;53.602;11.418;2023-01-31T11:42:14;100769.53;;;7.60;100.00
3206;BME280;1615;53.602;11.418;2023-01-31T11:44:56;100680.03;;;7.57;100.00
3206;BME280;1615;53.602;11.418;2023-01-31T11:50:06;100495.41;;;6.54;100.00
3206;BME280;1615;53.602;11.418;2023-01-31T11:52:33;100665.88;;;7.55;100.00
3206;BME280;1615;53.602;11.418;2023-01-31T11:55:05;100631.53;;;7.44;100.00
3206;BME280;1615;53.602;11.418;2023-01-31T11:57:34;100638.59;;;7.55;100.00
3206;BME280;1615;53.602;11.418;2023-01-31T12:00:04;100650.59;;;7.54;100.00
3206;BME280;1615;53.602;11.418;2023-01-31T12:02:40;100653.31;;;7.64;100.00
3206;BME280;1615;53.602;11.418;2023-01-31T12:05:14;100622.47;;;7.58;100.00
3206;BME280;1615;53.602;11.418;2023-01-31T12:10:29;100630.91;;;7.72;100.00
3206;BME280;1615;53.602;11.418;2023-01-31T12:13:12;100500.78;;;7.04;100.00
3206;BME280;1615;53.602;11.418;2023-01-31T12:15:55;100638.50;;;7.90;100.00
3206;BME280;1615;53.602;11.418;2023-01-31T12:38:06;100579.13;;;8.15;100.00
3206;BME280;1615;53.602;11.418;2023-01-31T12:41:02;100575.50;;;8.30;100.00
3206;BME280;1615;53.602;11.418;2023-01-31T12:49:03;100566.81;;;8.18;100.00
3206;BME280;1615;53.602;11.418;2023-01-31T12:51:42;100575.03;;;8.23;100.00
3206;BME280;1615;53.602;11.418;2023-01-31T12:54:19;100575.50;;;8.30;100.00
3206;BME280;1615;53.602;11.418;2023-01-31T13:02:36;100560.22;;;8.29;100.00
3206;BME280;1615;53.602;11.418;2023-01-31T13:05:23;100555.28;;;8.31;100.00
3206;BME280;1615;53.602;11.418;2023-01-31T13:08:15;100550.91;;;8.35;100.00
3206;BME280;1615;53.602;11.418;2023-01-31T13:13:40;100536.69;;;8.38;100.00
3206;BME280;1615;53.602;11.418;2023-01-31T13:16:16;100530.13;;;8.39;100.00
3206;BME280;1615;53.602;11.418;2023-01-31T13:18:46;100520.78;;;8.45;100.00
3206;BME280;1615;53.602;11.418;2023-01-31T13:21:16;100519.16;;;8.44;100.00
3206;BME280;1615;53.602;11.418;2023-01-31T13:23:49;100516.41;;;8.49;100.00
3206;BME280;1615;53.602;11.418;2023-01-31T13:26:34;100507.03;;;8.55;100.00
3206;BME280;1615;53.602;11.418;2023-01-31T13:37:00;100503.34;;;8.69;100.00
3206;BME280;1615;53.602;11.418;2023-01-31T13:39:36;100478.34;;;8.57;100.00
3206;BME280;1615;53.602;11.418;2023-01-31T13:42:03;100501.97;;;8.72;100.00
3206;BME280;1615;53.602;11.418;2023-01-31T13:44:29;100506.97;;;8.65;100.00
3206;BME280;1615;53.602;11.418;2023-01-31T13:47:14;100504.75;;;8.67;100.00
3206;BME280;1615;53.602;11.418;2023-01-31T13:49:49;100484.00;;;8.66;100.00
3206;BME280;1615;53.602;11.418;2023-01-31T13:52:30;100493.97;;;8.80;100.00
3206;BME280;1615;53.602;11.418;2023-01-31T13:55:05;100499.75;;;8.74;100.00
3206;BME280;1615;53.602;11.418;2023-01-31T13:57:35;100500.81;;;8.78;100.00
3206;BME280;1615;53.602;11.418;2023-01-31T14:03:07;100476.63;;;8.90;100.00
3206;BME280;1615;53.602;11.418;2023-01-31T14:13:45;100473.22;;;9.03;100.00
3206;BME280;1615;53.602;11.418;2023-01-31T14:16:34;100467.53;;;8.99;100.00
3206;BME280;1615;53.602;11.418;2023-01-31T14:19:02;100461.13;;;9.09;100.00
3206;BME280;1615;53.602;11.418;2023-01-31T14:23:54;100448.75;;;9.16;100.00
3206;BME280;1615;53.602;11.418;2023-01-31T14:29:08;100446.63;;;9.08;100.00
3206;BME280;1615;53.602;11.418;2023-01-31T14:31:37;100444.66;;;9.14;100.00
3206;BME280;1615;53.602;11.418;2023-01-31T14:34:02;100445.22;;;9.11;100.00
3206;BME280;1615;53.602;11.418;2023-01-31T14:58:43;100451.22;;;9.36;100.00
3206;BME280;1615;53.602;11.418;2023-01-31T15:01:11;100421.03;;;9.23;100.00
3206;BME280;1615;53.602;11.418;2023-01-31T15:03:49;100439.97;;;9.38;100.00
3206;BME280;1615;53.602;11.418;2023-01-31T15:06:25;100439.19;;;9.37;100.00
3206;BME280;1615;53.602;11.418;2023-01-31T15:11:47;100433.94;;;9.41;100.00
3206;BME280;1615;53.602;11.418;2023-01-31T15:16:45;100432.88;;;9.37;100.00
3206;BME280;1615;53.602;11.418;2023-01-31T15:19:11;100434.97;;;9.45;100.00
3206;BME280;1615;53.602;11.418;2023-01-31T15:21:47;100439.34;;;9.46;100.00
3206;BME280;1615;53.602;11.418;2023-01-31T15:24:26;100505.00;;;9.46;100.00
3206;BME280;1615;53.602;11.418;2023-01-31T15:26:54;100411.31;;;9.54;100.00
3206;BME280;1615;53.602;11.418;2023-01-31T15:29:32;100416.47;;;9.55;100.00
3206;BME280;1615;53.602;11.418;2023-01-31T15:32:05;100426.16;;;9.48;100.00
3206;BME280;1615;53.602;11.418;2023-01-31T15:34:43;100409.38;;;9.54;100.00
3206;BME280;1615;53.602;11.418;2023-01-31T15:37:17;100420.84;;;9.56;100.00
3206;BME280;1615;53.602;11.418;2023-01-31T15:40:05;100424.63;;;9.60;100.00